Time;durP1;ratioP1;P1;durP2;ratioP2;P2;SDS_P1;SDS_P2;PMS_P1;PMS_P2;Temp;Humidity;BMP_temperature;BMP_pressure;BME280_temperature;BME280_humidity;BME280_pressure;Samples;Min_cycle;Max_cycle;Signal;HPM_P1;HPM_P2
2023/06/11 00:00:27;;;;;;;9.63;5.00;;;17.40;99.90;;;;;;5076604;28;20638;-91
2023/06/11 00:02:56;;;;;;;7.03;4.60;;;17.40;99.90;;;;;;5076643;28;20173;-91
2023/06/11 00:05:30;;;;;;;13.38;4.72;;;17.30;99.90;;;;;;5076747;28;20185;-91
2023/06/11 00:08:00;;;;;;;7.80;3.90;;;17.30;99.90;;;;;;5075786;28;20248;-92
2023/06/11 00:10:26;;;;;;;6.25;3.90;;;17.30;99.90;;;;;;5076815;28;20205;-92
2023/06/11 00:12:51;;;;;;;9.95;4.35;;;17.30;99.90;;;;;;5075964;28;20174;-91
2023/06/11 00:15:19;;;;;;;6.60;3.88;;;17.20;99.90;;;;;;5076331;28;20173;-90
2023/06/11 00:17:50;;;;;;;7.65;4.32;;;17.20;99.90;;;;;;5076924;28;20622;-91
2023/06/11 00:20:16;;;;;;;7.05;4.10;;;17.20;99.90;;;;;;5075990;28;20181;-93
2023/06/11 00:22:42;;;;;;;6.15;3.83;;;17.10;99.90;;;;;;5075631;28;20174;-91
2023/06/11 00:25:10;;;;;;;10.77;3.78;;;17.10;99.90;;;;;;5076297;28;20293;-91
2023/06/11 00:27:37;;;;;;;7.25;3.53;;;17.10;99.90;;;;;;5075660;28;20173;-90
2023/06/11 00:30:04;;;;;;;10.50;3.97;;;17.10;99.90;;;;;;5075616;28;20224;-92
2023/06/11 00:32:35;;;;;;;6.60;3.80;;;17.10;99.90;;;;;;5075679;28;20180;-91
2023/06/11 00:35:06;;;;;;;9.00;3.42;;;17.10;99.90;;;;;;5075634;28;20272;-91
2023/06/11 00:37:34;;;;;;;8.82;3.75;;;17.10;99.90;;;;;;5075727;28;20586;-91
2023/06/11 00:40:00;;;;;;;8.93;3.80;;;17.00;99.90;;;;;;5075760;28;20173;-89
2023/06/11 00:42:27;;;;;;;7.78;3.30;;;17.00;99.90;;;;;;5075641;28;20225;-91
2023/06/11 00:44:55;;;;;;;7.72;3.55;;;16.90;99.90;;;;;;5076098;28;20256;-92
2023/06/11 00:47:21;;;;;;;6.78;3.60;;;16.90;99.90;;;;;;5075897;28;20173;-90
2023/06/11 00:49:49;;;;;;;7.38;3.15;;;16.90;99.90;;;;;;5075696;28;20626;-91
2023/06/11 00:52:16;;;;;;;7.60;3.20;;;16.80;99.90;;;;;;5075785;28;20208;-90
2023/06/11 00:54:46;;;;;;;7.30;3.45;;;16.80;99.90;;;;;;5075847;28;20173;-92
2023/06/11 00:57:13;;;;;;;7.10;3.40;;;16.80;99.90;;;;;;5075430;28;20246;-91
2023/06/11 00:59:40;;;;;;;9.32;3.13;;;16.80;99.90;;;;;;5075698;28;20176;-91
2023/06/11 01:02:17;;;;;;;5.65;3.20;;;16.70;99.90;;;;;;5075338;28;20184;-91
2023/06/11 01:04:45;;;;;;;5.55;3.03;;;16.70;99.90;;;;;;5075374;28;20630;-92
2023/06/11 01:07:15;;;;;;;7.93;3.30;;;16.60;99.90;;;;;;5075633;28;20199;-91
2023/06/11 01:09:43;;;;;;;9.25;2.90;;;16.60;99.90;;;;;;5075149;28;20173;-92
2023/06/11 01:12:10;;;;;;;8.38;2.92;;;16.60;99.90;;;;;;5075773;28;20210;-88
2023/06/11 01:14:36;;;;;;;6.72;2.72;;;16.60;99.90;;;;;;5074865;28;20181;-92
2023/06/11 01:17:10;;;;;;;8.48;3.17;;;16.50;99.90;;;;;;5074863;28;20173;-89
2023/06/11 01:19:43;;;;;;;7.78;2.88;;;16.50;99.90;;;;;;5073735;28;20176;-92
2023/06/11 01:22:54;;;;;;;6.40;2.83;;;16.50;99.90;;;;;;5075035;28;20733;-89
2023/06/11 01:25:45;;;;;;;6.70;2.90;;;16.40;99.90;;;;;;5061900;28;20189;-89
2023/06/11 01:28:17;;;;;;;8.02;3.08;;;16.50;99.90;;;;;;5074644;28;20180;-89
2023/06/11 01:30:49;;;;;;;7.53;3.13;;;16.40;99.90;;;;;;5074871;28;20205;-90
2023/06/11 01:33:18;;;;;;;5.22;2.63;;;16.40;99.90;;;;;;5074990;28;20181;-90
2023/06/11 01:35:48;;;;;;;5.55;3.03;;;16.40;99.90;;;;;;5074783;28;20688;-90
2023/06/11 01:38:15;;;;;;;6.13;3.05;;;16.30;99.90;;;;;;5075284;28;20169;-90
2023/06/11 01:40:40;;;;;;;5.30;2.70;;;16.30;99.90;;;;;;5074793;28;20192;-91
2023/06/11 01:43:06;;;;;;;8.63;2.88;;;16.30;99.90;;;;;;5074018;28;20741;-91
2023/06/11 01:45:36;;;;;;;6.97;2.97;;;16.20;99.90;;;;;;5074784;28;20177;-89
2023/06/11 01:48:02;;;;;;;7.25;3.22;;;16.10;99.90;;;;;;5074810;28;20681;-89
2023/06/11 01:50:28;;;;;;;19.88;3.08;;;16.10;99.90;;;;;;5074754;28;20663;-90
2023/06/11 01:52:54;;;;;;;7.93;3.03;;;16.10;99.90;;;;;;5074245;28;20219;-89
2023/06/11 01:55:19;;;;;;;7.57;2.65;;;16.10;99.90;;;;;;5074597;28;20591;-90
2023/06/11 01:57:46;;;;;;;7.30;3.03;;;16.10;99.90;;;;;;5074033;28;20268;-89
2023/06/11 02:00:12;;;;;;;6.43;2.90;;;16.00;99.90;;;;;;5074356;28;20184;-90
2023/06/11 02:02:44;;;;;;;7.47;2.90;;;16.10;99.90;;;;;;5074132;28;20188;-90
2023/06/11 02:05:16;;;;;;;7.40;2.67;;;16.00;99.90;;;;;;5074495;28;20551;-89
2023/06/11 02:07:42;;;;;;;9.48;3.05;;;16.00;99.90;;;;;;5074349;28;20196;-90
2023/06/11 02:10:08;;;;;;;8.05;3.05;;;16.00;99.90;;;;;;5074246;28;20643;-91
2023/06/11 02:12:35;;;;;;;6.43;3.05;;;16.00;99.90;;;;;;5073895;28;20188;-90
2023/06/11 02:15:04;;;;;;;12.07;3.40;;;15.90;99.90;;;;;;5075101;28;20253;-90
2023/06/11 02:17:30;;;;;;;6.20;3.00;;;15.90;99.90;;;;;;5074326;28;20503;-89
2023/06/11 02:19:56;;;;;;;4.22;2.65;;;15.80;99.90;;;;;;5074475;28;20180;-90
2023/06/11 02:22:22;;;;;;;7.15;2.80;;;15.90;99.90;;;;;;5073886;28;20228;-89
2023/06/11 02:24:47;;;;;;;5.82;3.05;;;15.80;99.90;;;;;;5074430;28;20191;-89
2023/06/11 02:27:13;;;;;;;10.40;2.97;;;15.80;99.90;;;;;;5074432;28;20180;-89
2023/06/11 02:29:39;;;;;;;9.10;2.80;;;15.80;99.90;;;;;;5073668;28;20202;-89
2023/06/11 02:32:06;;;;;;;9.57;2.92;;;15.80;99.90;;;;;;5074135;28;20173;-88
2023/06/11 02:34:32;;;;;;;10.20;3.65;;;15.70;99.90;;;;;;5073976;28;20180;-90
2023/06/11 02:37:00;;;;;;;7.15;2.85;;;15.70;99.90;;;;;;5074043;28;20173;-90
2023/06/11 02:39:29;;;;;;;9.50;3.05;;;15.70;99.90;;;;;;5073943;28;20173;-89
2023/06/11 02:41:55;;;;;;;6.72;3.38;;;15.70;99.90;;;;;;5073757;28;20564;-88
2023/06/11 02:44:21;;;;;;;5.75;2.40;;;15.60;99.90;;;;;;5073568;28;20169;-89
2023/06/11 02:46:53;;;;;;;5.38;2.90;;;15.50;99.90;;;;;;5073965;28;20526;-91
2023/06/11 02:49:20;;;;;;;7.03;3.10;;;15.50;99.90;;;;;;5073965;28;20184;-90
2023/06/11 02:51:45;;;;;;;7.15;3.08;;;15.50;99.90;;;;;;5073698;28;20213;-89
2023/06/11 02:54:11;;;;;;;5.05;2.90;;;15.50;99.90;;;;;;5074056;28;20173;-88
2023/06/11 02:56:43;;;;;;;5.10;2.80;;;15.50;99.90;;;;;;5073874;28;20186;-89
2023/06/11 02:59:09;;;;;;;6.70;2.90;;;15.50;99.90;;;;;;5073573;28;20173;-89
2023/06/11 03:01:35;;;;;;;4.90;2.47;;;15.40;99.90;;;;;;5073685;28;20248;-89
2023/06/11 03:04:00;;;;;;;5.47;2.92;;;15.40;99.90;;;;;;5073393;28;20173;-88
2023/06/11 03:06:26;;;;;;;5.57;3.13;;;15.40;99.90;;;;;;5073704;28;20520;-89
2023/06/11 03:08:53;;;;;;;5.55;2.85;;;15.40;99.90;;;;;;5073508;28;20173;-87
2023/06/11 03:11:19;;;;;;;6.80;2.47;;;15.40;99.90;;;;;;5073162;28;20223;-87
2023/06/11 03:13:44;;;;;;;5.60;3.00;;;15.30;99.90;;;;;;5073554;28;20173;-89
2023/06/11 03:16:11;;;;;;;7.00;2.90;;;15.30;99.90;;;;;;5075196;28;20173;-91
2023/06/11 03:18:37;;;;;;;7.57;2.55;;;15.30;99.90;;;;;;5073248;28;20169;-88
2023/06/11 03:21:03;;;;;;;7.63;2.83;;;15.30;99.90;;;;;;5070037;28;20190;-89
2023/06/11 03:23:29;;;;;;;6.40;2.78;;;15.20;99.90;;;;;;5061865;28;20243;-89
2023/06/11 03:25:55;;;;;;;8.68;2.72;;;15.20;99.90;;;;;;5073235;28;20181;-89
2023/06/11 03:28:20;;;;;;;5.28;2.97;;;15.10;99.90;;;;;;5073213;28;20176;-90
2023/06/11 03:30:46;;;;;;;7.40;2.88;;;15.00;99.90;;;;;;5073631;28;20216;-95
2023/06/11 03:33:12;;;;;;;4.90;2.78;;;14.90;99.90;;;;;;5073509;28;20182;-91
2023/06/11 03:35:38;;;;;;;5.85;3.20;;;15.00;99.90;;;;;;5073605;28;20654;-88
2023/06/11 03:38:03;;;;;;;6.65;3.03;;;14.90;99.90;;;;;;5073272;28;20177;-89
2023/06/11 03:40:29;;;;;;;3.80;2.78;;;14.90;99.90;;;;;;5073191;28;20181;-91
2023/06/11 03:42:55;;;;;;;6.78;3.00;;;14.90;99.90;;;;;;5075363;28;20608;-89
2023/06/11 03:45:20;;;;;;;4.45;2.67;;;14.90;99.90;;;;;;5077930;28;20257;-91
2023/06/11 03:47:52;;;;;;;5.10;3.00;;;15.00;99.90;;;;;;5077237;28;20201;-93
2023/06/11 03:50:18;;;;;;;3.63;2.50;;;15.00;99.90;;;;;;5078244;28;20643;-95
2023/06/11 03:52:44;;;;;;;6.78;2.97;;;15.10;99.90;;;;;;5076696;28;20181;-95
2023/06/11 03:55:10;;;;;;;10.55;3.20;;;15.10;99.90;;;;;;5076820;28;20667;-92
2023/06/11 03:57:38;;;;;;;4.40;2.72;;;15.10;99.90;;;;;;5075808;28;20276;-88
2023/06/11 04:00:05;;;;;;;6.57;3.00;;;15.10;99.90;;;;;;5076142;28;20245;-88
2023/06/11 04:02:31;;;;;;;7.78;3.22;;;15.10;99.90;;;;;;5076347;28;20177;-89
2023/06/11 04:04:57;;;;;;;7.63;3.03;;;15.10;99.90;;;;;;5076343;28;20199;-89
2023/06/11 04:07:26;;;;;;;8.07;3.17;;;15.20;99.90;;;;;;5076223;28;20173;-90
2023/06/11 04:09:52;;;;;;;6.38;2.85;;;15.20;99.90;;;;;;5075820;28;20286;-88
2023/06/11 04:12:17;;;;;;;5.40;3.13;;;15.20;99.90;;;;;;5076304;28;20208;-88
2023/06/11 04:14:43;;;;;;;6.85;2.95;;;15.20;99.90;;;;;;5075956;28;20170;-88
2023/06/11 04:17:10;;;;;;;8.32;3.20;;;15.30;99.90;;;;;;5076298;28;20618;-89
2023/06/11 04:19:35;;;;;;;6.40;2.92;;;15.30;99.90;;;;;;5076124;28;20165;-89
2023/06/11 04:22:01;;;;;;;7.78;3.00;;;15.40;99.90;;;;;;5075977;28;20191;-89
2023/06/11 04:24:30;;;;;;;8.65;3.00;;;15.40;99.90;;;;;;5077116;28;20170;-89
2023/06/11 04:26:58;;;;;;;5.07;2.80;;;15.50;99.90;;;;;;5076169;28;20177;-88
2023/06/11 04:29:29;;;;;;;4.97;2.95;;;15.50;99.90;;;;;;5075878;28;20172;-88
2023/06/11 04:31:56;;;;;;;4.80;3.05;;;15.60;99.90;;;;;;5075934;28;20288;-89
2023/06/11 04:34:28;;;;;;;5.03;2.88;;;15.60;99.90;;;;;;5075938;28;20300;-88
2023/06/11 04:36:56;;;;;;;6.00;2.92;;;15.60;99.90;;;;;;5075804;28;20205;-86
2023/06/11 04:39:22;;;;;;;7.50;3.13;;;15.80;99.90;;;;;;5077023;28;20157;-90
2023/06/11 04:41:48;;;;;;;6.40;3.13;;;15.90;99.90;;;;;;5075505;28;20187;-91
2023/06/11 04:44:16;;;;;;;12.75;3.25;;;16.00;99.90;;;;;;5075669;28;20201;-89
2023/06/11 04:46:43;;;;;;;5.47;3.10;;;16.10;99.90;;;;;;5075659;28;20611;-93
2023/06/11 04:49:09;;;;;;;8.05;3.28;;;16.20;99.90;;;;;;5075680;28;20193;-92
2023/06/11 04:51:40;;;;;;;5.32;3.33;;;16.40;99.90;;;;;;5075616;28;20296;-90
2023/06/11 04:54:07;;;;;;;6.38;3.03;;;16.50;99.90;;;;;;5075294;28;20173;-87
2023/06/11 04:56:33;;;;;;;7.95;3.20;;;16.50;99.90;;;;;;5075495;28;20519;-90
2023/06/11 04:59:01;;;;;;;8.98;3.67;;;16.60;99.90;;;;;;5075235;28;20177;-96
2023/06/11 05:01:32;;;;;;;8.85;3.15;;;16.60;99.90;;;;;;5076086;28;20231;-89
2023/06/11 05:03:58;;;;;;;4.10;3.20;;;16.50;99.90;;;;;;5075695;28;20473;-89
2023/06/11 05:06:25;;;;;;;11.95;3.50;;;16.60;99.90;;;;;;5076386;28;20204;-91
2023/06/11 05:08:55;;;;;;;11.15;3.28;;;16.60;99.90;;;;;;5075194;28;20173;-89
2023/06/11 05:11:20;;;;;;;11.10;3.35;;;16.70;99.90;;;;;;5075256;28;20258;-90
2023/06/11 05:13:46;;;;;;;13.40;3.80;;;16.60;99.90;;;;;;5074675;28;20177;-93
2023/06/11 05:16:12;;;;;;;8.77;3.40;;;16.70;99.90;;;;;;5075167;28;20224;-89
2023/06/11 05:18:38;;;;;;;6.00;3.08;;;16.80;99.90;;;;;;5074894;28;20173;-90
2023/06/11 05:21:05;;;;;;;7.85;3.33;;;16.80;99.90;;;;;;5075001;28;20180;-91
2023/06/11 05:23:33;;;;;;;5.47;3.33;;;16.80;99.90;;;;;;5075107;28;20205;-94
2023/06/11 05:26:01;;;;;;;11.05;3.55;;;16.90;99.90;;;;;;5074971;28;20223;-87
2023/06/11 05:28:27;;;;;;;4.00;3.15;;;17.00;99.90;;;;;;5074740;28;20173;-89
2023/06/11 05:30:53;;;;;;;4.03;3.08;;;17.00;99.90;;;;;;5074510;28;20209;-89
2023/06/11 05:33:20;;;;;;;8.10;3.08;;;17.00;99.90;;;;;;5074095;28;20177;-89
2023/06/11 05:35:47;;;;;;;4.35;2.92;;;17.10;99.90;;;;;;5074788;28;20226;-91
2023/06/11 05:38:13;;;;;;;7.00;3.63;;;17.20;99.90;;;;;;5074652;28;20170;-89
2023/06/11 05:40:39;;;;;;;5.70;3.15;;;17.20;99.90;;;;;;5074496;28;20180;-89
2023/06/11 05:43:05;;;;;;;8.32;3.30;;;17.20;99.90;;;;;;5073581;28;20232;-89
2023/06/11 05:45:32;;;;;;;9.50;3.40;;;17.30;99.90;;;;;;5073964;28;20226;-90
2023/06/11 05:48:00;;;;;;;10.35;4.25;;;17.30;99.90;;;;;;5074245;28;20192;-89
2023/06/11 05:50:26;;;;;;;9.65;3.65;;;17.40;99.90;;;;;;5074356;28;20200;-90
2023/06/11 05:52:52;;;;;;;7.90;3.40;;;17.40;99.90;;;;;;5074055;28;20192;-88
2023/06/11 05:55:18;;;;;;;5.80;3.22;;;17.40;99.90;;;;;;5074234;28;20275;-89
2023/06/11 05:57:49;;;;;;;5.78;3.35;;;17.40;99.90;;;;;;5075528;28;20260;-89
2023/06/11 06:00:15;;;;;;;7.75;3.30;;;17.50;99.90;;;;;;5074042;28;20180;-89
2023/06/11 06:02:41;;;;;;;7.53;3.22;;;17.50;99.90;;;;;;5074100;28;20185;-89
2023/06/11 06:05:07;;;;;;;6.60;3.67;;;17.70;99.90;;;;;;5073699;28;20181;-89
2023/06/11 06:07:35;;;;;;;6.28;3.88;;;17.70;99.90;;;;;;5074032;28;20188;-87
2023/06/11 06:10:02;;;;;;;6.93;3.72;;;17.80;99.90;;;;;;5073849;28;20205;-89
2023/06/11 06:12:28;;;;;;;12.75;4.20;;;17.80;99.90;;;;;;5073793;28;20600;-86
2023/06/11 06:14:54;;;;;;;8.05;3.53;;;17.90;99.90;;;;;;5074842;28;20196;-88
2023/06/11 06:17:20;;;;;;;4.90;3.20;;;17.90;99.90;;;;;;5074156;28;20265;-87
2023/06/11 06:19:48;;;;;;;5.72;3.35;;;18.00;99.90;;;;;;5090797;28;20173;-88
2023/06/11 06:22:16;;;;;;;10.13;3.58;;;18.10;99.90;;;;;;5073425;28;20181;-88
2023/06/11 06:24:41;;;;;;;6.45;3.13;;;18.20;99.90;;;;;;5073233;28;20177;-87
2023/06/11 06:27:07;;;;;;;6.97;3.22;;;18.20;99.90;;;;;;5073598;28;20187;-87
2023/06/11 06:29:38;;;;;;;5.25;3.72;;;18.30;99.90;;;;;;5073253;28;20611;-87
2023/06/11 06:32:08;;;;;;;7.00;3.38;;;18.40;99.90;;;;;;5073642;28;20201;-88
2023/06/11 06:34:34;;;;;;;6.40;3.53;;;18.40;99.90;;;;;;5073047;28;20173;-87
2023/06/11 06:37:00;;;;;;;5.30;3.63;;;18.50;99.90;;;;;;5073777;28;20187;-89
2023/06/11 06:39:36;;;;;;;6.88;4.10;;;18.70;99.90;;;;;;5073732;28;20626;-89
2023/06/11 06:42:01;;;;;;;6.28;3.55;;;18.80;99.90;;;;;;5073336;28;20536;-87
2023/06/11 06:44:27;;;;;;;6.40;3.53;;;18.90;99.90;;;;;;5073686;28;20230;-88
2023/06/11 06:46:53;;;;;;;5.25;3.85;;;19.10;99.90;;;;;;5073797;28;20180;-88
2023/06/11 06:49:21;;;;;;;6.15;3.50;;;19.10;99.90;;;;;;5073556;28;20211;-87
2023/06/11 06:51:46;;;;;;;4.53;3.45;;;19.30;99.90;;;;;;5073426;28;20262;-88
2023/06/11 06:54:12;;;;;;;5.22;3.47;;;19.40;99.90;;;;;;5073301;28;20181;-88
2023/06/11 06:56:38;;;;;;;5.13;3.35;;;19.50;99.90;;;;;;5073342;28;20242;-88
2023/06/11 06:59:07;;;;;;;6.50;3.65;;;19.70;99.90;;;;;;5073166;28;20181;-90
2023/06/11 07:01:33;;;;;;;7.20;3.83;;;19.90;99.90;;;;;;5073230;28;20180;-88
2023/06/11 07:03:58;;;;;;;8.63;3.72;;;20.00;99.90;;;;;;5073218;28;20296;-89
2023/06/11 07:06:25;;;;;;;9.63;4.15;;;20.10;99.90;;;;;;5073480;28;20208;-88
2023/06/11 07:08:51;;;;;;;5.95;3.67;;;20.20;99.70;;;;;;5073278;28;20280;-88
2023/06/11 07:11:17;;;;;;;5.55;3.40;;;20.40;99.70;;;;;;5073364;28;20254;-89
2023/06/11 07:13:43;;;;;;;7.30;3.50;;;20.50;99.30;;;;;;5072871;28;20173;-91
2023/06/11 07:16:09;;;;;;;3.15;2.80;;;20.70;99.50;;;;;;5075211;28;20188;-87
2023/06/11 07:18:37;;;;;;;7.88;3.65;;;20.80;99.60;;;;;;5077426;28;20177;-91
2023/06/11 07:21:03;;;;;;;7.07;4.00;;;21.00;98.50;;;;;;5077258;28;20627;-88
2023/06/11 07:23:28;;;;;;;7.47;4.00;;;21.10;98.40;;;;;;5076674;28;20186;-86
2023/06/11 07:25:55;;;;;;;7.70;3.55;;;21.20;98.30;;;;;;5077040;28;20177;-88
2023/06/11 07:28:21;;;;;;;7.90;3.72;;;21.40;98.00;;;;;;5077984;28;20176;-86
2023/06/11 07:30:48;;;;;;;6.15;3.58;;;21.40;97.90;;;;;;5076823;28;20292;-88
2023/06/11 07:33:16;;;;;;;5.28;3.50;;;21.60;98.10;;;;;;5076995;28;20219;-88
2023/06/11 07:35:43;;;;;;;8.32;3.45;;;21.70;97.60;;;;;;5076898;28;20177;-89
2023/06/11 07:38:08;;;;;;;5.03;3.40;;;21.80;98.00;;;;;;5076687;28;20213;-87
2023/06/11 07:40:34;;;;;;;8.18;3.97;;;21.90;97.90;;;;;;5077079;28;20209;-90
2023/06/11 07:43:00;;;;;;;9.68;4.05;;;22.10;96.40;;;;;;5076253;28;20228;-89
2023/06/11 07:45:26;;;;;;;7.55;3.38;;;22.20;96.70;;;;;;5077628;28;20201;-89
2023/06/11 07:47:52;;;;;;;6.68;3.63;;;22.20;97.20;;;;;;5076629;28;20215;-87
2023/06/11 07:50:17;;;;;;;9.60;3.60;;;22.30;96.80;;;;;;5077571;28;20297;-88
2023/06/11 07:52:43;;;;;;;8.73;3.80;;;22.40;96.40;;;;;;5076336;28;20200;-89
2023/06/11 07:55:09;;;;;;;5.70;3.72;;;22.30;95.10;;;;;;5076387;28;20197;-88
2023/06/11 07:57:35;;;;;;;6.72;3.58;;;22.40;95.40;;;;;;5077692;28;20195;-89
2023/06/11 08:00:03;;;;;;;6.18;3.85;;;22.50;95.10;;;;;;5076238;28;20184;-88
2023/06/11 08:02:29;;;;;;;9.00;3.60;;;22.60;95.00;;;;;;5076445;28;20262;-89
2023/06/11 08:04:54;;;;;;;8.95;3.95;;;22.80;95.40;;;;;;5077669;28;20189;-89
2023/06/11 08:07:20;;;;;;;4.20;3.35;;;22.80;94.20;;;;;;5076032;28;20169;-89
2023/06/11 08:09:54;;;;;;;10.70;3.78;;;22.90;94.30;;;;;;5076282;28;20235;-90
2023/06/11 08:12:20;;;;;;;8.02;3.65;;;23.00;95.10;;;;;;5076208;28;20623;-88
2023/06/11 08:14:45;;;;;;;7.40;3.72;;;23.10;94.70;;;;;;5076093;28;20205;-89
2023/06/11 08:17:11;;;;;;;5.47;3.60;;;23.30;95.20;;;;;;5075927;28;20177;-89
2023/06/11 08:19:37;;;;;;;6.85;3.17;;;23.40;94.20;;;;;;5075389;28;20173;-89
2023/06/11 08:22:03;;;;;;;5.50;3.47;;;23.60;94.40;;;;;;5075995;28;20173;-86
2023/06/11 08:24:30;;;;;;;5.00;3.35;;;23.70;93.40;;;;;;5075975;28;20202;-90
2023/06/11 08:26:56;;;;;;;7.00;3.70;;;23.70;94.00;;;;;;5075852;28;20177;-90
2023/06/11 08:29:22;;;;;;;11.02;3.78;;;23.70;93.70;;;;;;5075070;28;20314;-88
2023/06/11 08:31:48;;;;;;;6.72;3.70;;;23.80;93.40;;;;;;5075907;28;20346;-87
2023/06/11 08:34:14;;;;;;;4.95;3.65;;;23.80;93.30;;;;;;5075328;28;20200;-89
2023/06/11 08:36:43;;;;;;;8.52;3.97;;;24.00;93.90;;;;;;5075720;28;20226;-88
2023/06/11 08:39:09;;;;;;;9.13;3.90;;;24.00;93.60;;;;;;5075767;28;20181;-88
2023/06/11 08:41:36;;;;;;;5.22;3.53;;;24.10;92.30;;;;;;5075558;28;20177;-91
2023/06/11 08:44:02;;;;;;;6.55;3.83;;;24.20;92.40;;;;;;5075347;28;20258;-89
2023/06/11 08:46:34;;;;;;;6.80;3.20;;;24.30;93.30;;;;;;5075496;28;20185;-88
2023/06/11 08:49:06;;;;;;;9.00;3.25;;;24.30;92.30;;;;;;5075501;28;20204;-90
2023/06/11 08:51:37;;;;;;;8.25;3.03;;;24.40;91.60;;;;;;5075360;28;20292;-91
2023/06/11 08:54:08;;;;;;;6.05;3.42;;;24.60;91.80;;;;;;5075747;28;20222;-90
2023/06/11 08:56:34;;;;;;;8.15;3.85;;;24.70;91.90;;;;;;5075265;28;20181;-90
2023/06/11 08:59:02;;;;;;;6.03;3.20;;;24.70;91.90;;;;;;5076099;28;20650;-88
2023/06/11 09:01:29;;;;;;;7.47;3.22;;;24.70;90.60;;;;;;5075298;28;20184;-90
2023/06/11 09:03:55;;;;;;;4.65;3.13;;;24.90;90.60;;;;;;5075257;28;20185;-91
2023/06/11 09:06:21;;;;;;;7.20;3.45;;;25.00;91.70;;;;;;5075439;28;20208;-88
2023/06/11 09:09:07;;;;;;;5.72;3.22;;;25.10;91.00;;;;;;5075308;28;20711;-92
2023/06/11 09:11:35;;;;;;;4.13;3.20;;;25.20;90.20;;;;;;5075025;28;20201;-92
2023/06/11 09:14:01;;;;;;;3.30;3.00;;;25.20;86.70;;;;;;5074502;28;20490;-93
2023/06/11 09:16:27;;;;;;;5.80;3.53;;;25.20;88.70;;;;;;5075237;28;20185;-90
2023/06/11 09:18:55;;;;;;;6.25;3.15;;;25.20;88.60;;;;;;5074853;28;20211;-89
2023/06/11 09:21:24;;;;;;;9.68;3.15;;;25.40;88.60;;;;;;5074766;28;20512;-90
2023/06/11 09:23:51;;;;;;;6.15;3.45;;;25.50;86.40;;;;;;5074653;28;20169;-88
2023/06/11 09:26:18;;;;;;;6.50;3.35;;;25.50;87.40;;;;;;5074744;28;20185;-91
2023/06/11 09:28:46;;;;;;;4.80;2.90;;;25.70;87.60;;;;;;5074499;28;20180;-89
2023/06/11 09:31:22;;;;;;;7.07;2.97;;;25.70;85.80;;;;;;5074341;28;20221;-91
2023/06/11 09:33:48;;;;;;;8.65;3.15;;;25.80;86.90;;;;;;5074610;28;20184;-88
2023/06/11 09:36:16;;;;;;;10.50;2.70;;;25.90;85.60;;;;;;5074811;28;20196;-89
2023/06/11 09:38:45;;;;;;;8.35;3.13;;;26.00;83.70;;;;;;5074560;28;20186;-91
2023/06/11 09:41:11;;;;;;;5.13;3.00;;;26.00;83.40;;;;;;5073548;28;20623;-89
2023/06/11 09:43:37;;;;;;;5.55;3.10;;;26.10;82.60;;;;;;5074333;28;20236;-88
2023/06/11 09:46:03;;;;;;;10.02;2.70;;;26.20;80.20;;;;;;5076033;28;20517;-91
2023/06/11 09:48:30;;;;;;;4.47;3.00;;;26.20;79.30;;;;;;5074488;28;20177;-91
2023/06/11 09:51:02;;;;;;;4.13;2.35;;;26.10;78.80;;;;;;5074278;28;20216;-88
2023/06/11 09:53:29;;;;;;;4.45;2.58;;;26.20;78.80;;;;;;5074055;28;20174;-90
2023/06/11 09:55:56;;;;;;;6.50;2.42;;;26.20;74.00;;;;;;5074217;28;20635;-90
2023/06/11 09:58:23;;;;;;;7.00;2.60;;;26.30;77.70;;;;;;5074358;28;20173;-91
2023/06/11 10:00:58;;;;;;;4.60;2.75;;;26.30;77.30;;;;;;5073977;28;20185;-90
2023/06/11 10:03:24;;;;;;;4.13;2.33;;;26.30;75.50;;;;;;5074254;28;20180;-89
2023/06/11 10:05:51;;;;;;;5.45;2.65;;;26.40;76.60;;;;;;5073865;28;20174;-88
2023/06/11 10:08:22;;;;;;;9.65;2.70;;;26.40;74.60;;;;;;5074259;28;20244;-90
2023/06/11 10:10:55;;;;;;;4.35;2.42;;;26.40;74.30;;;;;;5073879;28;20260;-94
2023/06/11 10:13:32;;;;;;;6.10;2.72;;;26.40;73.80;;;;;;5073932;28;20572;-92
2023/06/11 10:16:00;;;;;;;6.30;2.65;;;26.50;73.30;;;;;;5073676;28;20262;-92
2023/06/11 10:18:26;;;;;;;3.65;2.67;;;26.60;75.40;;;;;;5073833;28;20181;-92
2023/06/11 10:21:00;;;;;;;4.50;2.90;;;26.60;72.40;;;;;;5073873;28;20263;-92
2023/06/11 10:23:38;;;;;;;5.43;2.60;;;26.70;72.40;;;;;;5074958;28;20160;-90
2023/06/11 10:26:04;;;;;;;6.32;3.03;;;26.80;74.40;;;;;;5073840;28;20185;-89
2023/06/11 10:28:51;;;;;;;3.67;2.78;;;26.90;73.10;;;;;;5073468;28;20188;-88
2023/06/11 10:31:30;;;;;;;4.80;2.40;;;26.80;71.10;;;;;;5073622;28;20647;-90
2023/06/11 10:34:05;;;;;;;4.10;2.30;;;26.90;71.90;;;;;;5073805;28;20181;-91
2023/06/11 10:36:36;;;;;;;6.32;2.83;;;26.90;71.50;;;;;;5073882;28;20235;-91
2023/06/11 10:39:12;;;;;;;3.95;2.60;;;27.10;70.40;;;;;;5073838;28;20201;-89
2023/06/11 10:41:42;;;;;;;5.10;2.58;;;27.10;71.00;;;;;;5073009;28;20165;-90
2023/06/11 10:44:10;;;;;;;4.82;2.70;;;27.20;71.80;;;;;;5073544;28;20272;-87
2023/06/11 10:46:48;;;;;;;4.18;2.30;;;27.20;70.10;;;;;;5073787;28;20497;-88
2023/06/11 10:49:14;;;;;;;7.80;2.80;;;27.20;68.50;;;;;;5073475;28;20200;-91
2023/06/11 10:52:00;;;;;;;4.18;2.30;;;27.30;70.10;;;;;;5075073;28;20216;-90
2023/06/11 10:54:28;;;;;;;4.90;2.97;;;27.30;70.90;;;;;;5078025;28;20165;-90
2023/06/11 10:56:54;;;;;;;7.28;2.20;;;27.20;68.70;;;;;;5077878;28;20215;-90
2023/06/11 10:59:23;;;;;;;4.22;2.30;;;27.30;69.40;;;;;;5077721;28;20215;-90
2023/06/11 11:01:57;;;;;;;4.35;2.60;;;27.30;68.00;;;;;;5078904;28;20234;-91
2023/06/11 11:04:23;;;;;;;6.15;2.40;;;27.60;71.00;;;;;;5077525;28;20641;-88
2023/06/11 11:06:52;;;;;;;6.00;2.63;;;27.60;69.50;;;;;;5077554;28;20181;-92
2023/06/11 11:09:24;;;;;;;5.40;2.60;;;27.60;69.40;;;;;;5077557;28;20272;-88
2023/06/11 11:11:52;;;;;;;5.82;2.83;;;27.70;69.90;;;;;;5077512;28;20212;-92
2023/06/11 11:14:18;;;;;;;3.60;2.67;;;27.80;68.70;;;;;;5078447;28;20188;-89
2023/06/11 11:16:48;;;;;;;4.50;2.70;;;27.80;69.90;;;;;;5077313;28;20192;-93
2023/06/11 11:19:14;;;;;;;6.28;2.60;;;27.90;70.90;;;;;;5077143;28;20185;-88
2023/06/11 11:21:40;;;;;;;3.88;2.92;;;28.10;70.40;;;;;;5077457;28;20185;-91
2023/06/11 11:24:12;;;;;;;6.85;3.00;;;28.10;71.40;;;;;;5077143;28;20176;-91
2023/06/11 11:26:48;;;;;;;4.38;2.80;;;28.20;71.10;;;;;;5077140;28;20180;-89
2023/06/11 11:29:14;;;;;;;5.22;2.78;;;28.20;70.50;;;;;;5076926;28;20172;-91
2023/06/11 11:31:43;;;;;;;4.00;2.67;;;28.10;71.90;;;;;;5076963;28;20320;-89
2023/06/11 11:34:09;;;;;;;5.15;2.85;;;27.90;70.70;;;;;;5077056;28;20189;-93
2023/06/11 11:36:35;;;;;;;3.75;2.80;;;27.90;71.00;;;;;;5077306;28;20271;-93
2023/06/11 11:39:11;;;;;;;9.50;3.22;;;27.80;70.80;;;;;;5076969;28;20188;-91
2023/06/11 11:41:53;;;;;;;5.28;2.67;;;27.80;71.50;;;;;;5076735;28;20181;-92
2023/06/11 11:44:19;;;;;;;4.90;2.42;;;28.10;71.80;;;;;;5076753;28;20272;-92
2023/06/11 11:46:45;;;;;;;8.20;2.83;;;28.20;70.60;;;;;;5076769;28;20177;-92
2023/06/11 11:49:12;;;;;;;7.53;3.15;;;28.30;70.20;;;;;;5076809;28;20280;-91
2023/06/11 11:51:51;;;;;;;7.10;2.78;;;28.50;70.10;;;;;;5076500;28;20209;-93
2023/06/11 11:54:18;;;;;;;4.45;2.28;;;28.70;70.70;;;;;;5076392;28;20172;-91
2023/06/11 11:56:43;;;;;;;5.05;2.50;;;28.50;66.70;;;;;;5076804;28;20222;-93
2023/06/11 11:59:37;;;;;;;4.80;2.65;;;28.60;69.90;;;;;;5076200;28;20173;-92
2023/06/11 12:02:10;;;;;;;7.65;2.70;;;28.60;69.10;;;;;;5074217;28;20185;-91
2023/06/11 12:04:46;;;;;;;6.15;2.45;;;28.80;67.10;;;;;;5075452;28;20177;-90
2023/06/11 12:07:14;;;;;;;7.28;3.15;;;28.80;68.50;;;;;;5076495;28;20181;-93
2023/06/11 12:09:41;;;;;;;5.63;2.60;;;28.70;66.00;;;;;;5076331;28;20180;-92
2023/06/11 12:12:08;;;;;;;3.90;2.63;;;28.70;67.90;;;;;;5076079;28;20204;-90
2023/06/11 12:14:35;;;;;;;3.67;2.30;;;28.50;66.20;;;;;;5076439;28;20528;-91
2023/06/11 12:17:01;;;;;;;3.45;2.63;;;28.50;67.90;;;;;;5076193;28;20627;-88
2023/06/11 12:19:31;;;;;;;4.68;2.90;;;28.20;65.70;;;;;;5076146;28;20185;-91
2023/06/11 12:21:57;;;;;;;3.97;2.50;;;28.30;67.80;;;;;;5076135;28;20179;-91
2023/06/11 12:24:23;;;;;;;4.68;2.60;;;28.40;65.70;;;;;;5076053;28;20267;-90
2023/06/11 12:26:50;;;;;;;5.78;2.60;;;28.60;68.00;;;;;;5076330;28;20177;-91
2023/06/11 12:29:16;;;;;;;6.50;2.60;;;28.60;68.50;;;;;;5075937;28;20177;-91
2023/06/11 12:31:47;;;;;;;6.03;2.83;;;28.60;66.50;;;;;;5075992;28;20212;-89
2023/06/11 12:34:16;;;;;;;5.93;2.80;;;28.70;65.80;;;;;;5077088;28;20230;-91
2023/06/11 12:36:43;;;;;;;4.20;2.47;;;28.40;65.20;;;;;;5075842;28;20184;-91
2023/06/11 12:39:10;;;;;;;3.20;2.50;;;28.50;65.80;;;;;;5075931;28;20245;-92
2023/06/11 12:41:36;;;;;;;3.60;2.58;;;28.50;65.60;;;;;;5075340;28;20264;-91
2023/06/11 12:44:01;;;;;;;4.03;2.83;;;28.60;66.40;;;;;;5075550;28;20201;-92
2023/06/11 12:46:27;;;;;;;3.72;2.50;;;28.70;72.00;;;;;;5075478;28;20180;-92
2023/06/11 12:48:53;;;;;;;3.53;2.75;;;28.90;66.80;;;;;;5075822;28;20180;-91